Portada
METAR-TAF:

METAR-TAF

Aeroports :

Morristown, Nova Jersey, Estats Units d'Amèrica

latitud: 40-48N, longitud: 074-25W, altitud: 57 m

Observació

L'informe es va fer fa 4 hores i 47 minuts, a les 18:45 UTC
Vent 6 kt del Est/Sud-Est amb ràfegues de 13 kt
Temperatura 19°C
Humitat 68%
Pressió 1024 hPa
Visibilitat: 16.1 km
Cel ennuvolat a una alçada de 2800 ft

METAR: KMMU 241845Z 11006G13KT 10SM BKN028 19/13 A3025

Hora: 19:32 (23:32 UTC)


TAF: manca

Observacions i pronòstics meteorològics de més de 4000 aeroports (METAR i TAF).

Les estacions disponibles són els punts grocs i vermells al mapa.

Posi el ratolí al punt desitjat per veure el nom de l'estació.

Feu clic per veure les observacions i els pronòstics meteorològics.

Per canviar el mapa: feu clic els botons verds amb una creu de color negre per apropar; al botó verd amb un guió per allunyar la imatge; o en les fletxes verdes per a mapes adjacents.


METAR-TAF: